Garcia Miguel — CUGT9 — position and weather

sailwx.info

Track history (hours):
 
Tides and Currents Weather Stations Pressure Air Temp Water Temp Dewpoint Dewpoint Depression Visibility Wind Speed Wind Dir Waves Ship Positions

Garcia Miguel

Last reported at 2015-May-14 19:09 UTC. Time now 2015-May-27 05:56 UTC.
Position N 36°35' W 011°28'.
Warning: this ship's position is 12 days out of date.

Length 20 m.

Type: Fishing. MMSI: 263500286.

Date/timePositionNaut miles runAvg speedWind from/ knotsBaromVisibWave heightAir tempDewpointWater temp
2015-May-14 19:09N 36°35' W 011°28'0 0.3
2015-May-14 18:31N 36°34' W 011°28'1 0.7
2015-May-14 17:33N 36°34' W 011°28'1 0.7
2015-May-14 16:28N 36°34' W 011°28'2 0.3
2015-May-14 09:33N 36°35' W 011°26'2 0.6
2015-May-14 06:13N 36°36' W 011°24'1 1.9
2015-May-14 05:28N 36°36' W 011°25'4 4.0
2015-May-14 04:30N 36°34' W 011°29'5 2.4
2015-May-14 02:30N 36°37' W 011°24'1 0.8
2015-May-14 01:23N 36°36' W 011°23'0 0.6
2015-May-14 00:31N 36°35' W 011°23'1 1.0
2015-May-13 23:30N 36°36' W 011°24'2 2.6
2015-May-13 22:33N 36°37' W 011°21'6 6.1
2015-May-13 21:32N 36°39' W 011°13'5 5.4
2015-May-13 20:33N 36°40' W 011°07'0 0.4
2015-May-13 19:33N 36°40' W 011°07'1 1.2
2015-May-13 18:33N 36°40' W 011°09'2 1.1
2015-May-13 16:33N 36°41' W 011°06'1 1.3
2015-May-13 15:28N 36°41' W 011°05'1 1.0
2015-May-13 14:33N 36°41' W 011°06'1 0.6
2015-May-13 13:29N 36°40' W 011°06'3 3.4
2015-May-13 12:33N 36°43' W 011°05'1 1.0
2015-May-13 11:33N 36°45' W 011°05'0 0.3
2015-May-13 10:33N 36°44' W 011°05'0 0.3
2015-May-13 09:33N 36°44' W 011°05'1 0.5
2015-May-13 08:33N 36°45' W 011°04'1 1.2
2015-May-13 07:33N 36°43' W 011°05'4 3.1
2015-May-13 06:16N 36°40' W 011°08'3 4.8
2015-May-13 05:33N 36°43' W 011°05'2 1.6
2015-May-13 04:33N 36°44' W 011°04'8 7.2
2015-May-13 03:29N 36°49' W 010°56'7 7.4
2015-May-13 02:33N 36°52' W 010°49'8 7.2
2015-May-13 01:24N 36°56' W 010°40'7 7.6
2015-May-13 00:33N 36°59' W 010°32'8 7.7
2015-May-12 23:33N 37°02' W 010°24'7 7.4
2015-May-12 22:33N 37°05' W 010°15'8 7.6
2015-May-12 21:33N 37°09' W 010°07'8 7.6
2015-May-12 20:33N 37°12' W 009°58'8 7.9
2015-May-12 19:33N 37°16' W 009°49'8 7.7
2015-May-12 18:33N 37°19' W 009°41'7 7.5
2015-May-12 17:33N 37°23' W 009°32'7 6.9
2015-May-12 16:33N 37°26' W 009°25'7 7.0
2015-May-12 15:32N 37°30' W 009°17'8 7.1
2015-May-12 14:24N 37°34' W 009°08'6 7.1
2015-May-12 13:33N 37°37' W 009°02'6 5.9
2015-May-12 12:33N 37°41' W 008°56'1 1.1
2015-May-12 11:33N 37°42' W 008°56'1 1.2
2015-May-12 10:33N 37°43' W 008°56'1 1.2
2015-May-12 09:33N 37°44' W 008°56'0 0.2
2015-May-12 08:33N 37°44' W 008°57'1 1.1
2015-May-12 07:32N 37°43' W 008°57'1 1.2
2015-May-12 06:33N 37°42' W 008°57'1 1.2
2015-May-12 05:33N 37°41' W 008°57'1 1.1
2015-May-12 04:33N 37°41' W 008°56'0 0.4
2015-May-12 03:33N 37°41' W 008°56'3 2.9
2015-May-12 02:33N 37°44' W 008°57'3 2.5
2015-May-12 01:33N 37°41' W 008°57'4 3.5
2015-May-12 00:33N 37°38' W 008°58'2 1.6
2015-May-11 23:31N 37°39' W 008°59'7 7.1
2015-May-11 22:33N 37°46' W 008°57'7 7.1
2015-May-11 21:33N 37°52' W 008°60'8 7.8
2015-May-11 20:33N 37°59' W 009°04'8 7.5
2015-May-11 19:33N 38°06' W 009°09'7 7.4
2015-May-11 18:33N 38°13' W 009°13'8 7.7
2015-May-11 17:32N 38°20' W 009°17'7 7.5
2015-May-11 16:33N 38°27' W 009°21'8 7.5
2015-May-11 15:33N 38°33' W 009°25'8 7.4
2015-May-11 14:32N 38°40' W 009°29'9 6.8
2015-May-11 13:11N 38°49' W 009°31'33 6.7
2015-May-11 08:17N 39°21' W 009°22'  
2015-May-08 18:18N 39°21' W 009°22'0 0.0
2015-May-08 17:33N 39°21' W 009°22'0 0.0
2015-May-08 16:33N 39°21' W 009°22'0 0.0
2015-May-08 15:33N 39°21' W 009°22'0 0.0
2015-May-08 14:33N 39°21' W 009°22'0 0.0
2015-May-08 13:29N 39°21' W 009°22'0 0.0
2015-May-07 05:33N 39°21' W 009°22'0 0.0
2015-May-07 03:18N 39°21' W 009°22'0 0.0
2015-May-07 02:31N 39°21' W 009°22'  
Track history (hours):
 
Tides and Currents Weather Stations Pressure Air Temp Water Temp Dewpoint Dewpoint Depression Visibility Wind Speed Wind Dir Waves Ship Positions

Garcia Miguel

Last reported at 2015-May-14 19:09 UTC. Time now 2015-May-27 05:56 UTC.
Position N 36°35' W 011°28'.
Warning: this ship's position is 12 days out of date.

Length 20 m.

Type: Fishing. MMSI: 263500286.

Date/timePositionNaut miles runAvg speedWind from/ knotsBaromVisibWave heightAir tempDewpointWater temp
2015-May-14 19:09N 36°35' W 011°28'0 0.3
2015-May-14 18:31N 36°34' W 011°28'1 0.7
2015-May-14 17:33N 36°34' W 011°28'1 0.7
2015-May-14 16:28N 36°34' W 011°28'2 0.3
2015-May-14 09:33N 36°35' W 011°26'2 0.6
2015-May-14 06:13N 36°36' W 011°24'1 1.9
2015-May-14 05:28N 36°36' W 011°25'4 4.0
2015-May-14 04:30N 36°34' W 011°29'5 2.4
2015-May-14 02:30N 36°37' W 011°24'1 0.8
2015-May-14 01:23N 36°36' W 011°23'0 0.6
2015-May-14 00:31N 36°35' W 011°23'1 1.0
2015-May-13 23:30N 36°36' W 011°24'2 2.6
2015-May-13 22:33N 36°37' W 011°21'6 6.1
2015-May-13 21:32N 36°39' W 011°13'5 5.4
2015-May-13 20:33N 36°40' W 011°07'0 0.4
2015-May-13 19:33N 36°40' W 011°07'1 1.2
2015-May-13 18:33N 36°40' W 011°09'2 1.1
2015-May-13 16:33N 36°41' W 011°06'1 1.3
2015-May-13 15:28N 36°41' W 011°05'1 1.0
2015-May-13 14:33N 36°41' W 011°06'1 0.6
2015-May-13 13:29N 36°40' W 011°06'3 3.4
2015-May-13 12:33N 36°43' W 011°05'1 1.0
2015-May-13 11:33N 36°45' W 011°05'0 0.3
2015-May-13 10:33N 36°44' W 011°05'0 0.3
2015-May-13 09:33N 36°44' W 011°05'1 0.5
2015-May-13 08:33N 36°45' W 011°04'1 1.2
2015-May-13 07:33N 36°43' W 011°05'4 3.1
2015-May-13 06:16N 36°40' W 011°08'3 4.8
2015-May-13 05:33N 36°43' W 011°05'2 1.6
2015-May-13 04:33N 36°44' W 011°04'8 7.2
2015-May-13 03:29N 36°49' W 010°56'7 7.4
2015-May-13 02:33N 36°52' W 010°49'8 7.2
2015-May-13 01:24N 36°56' W 010°40'7 7.6
2015-May-13 00:33N 36°59' W 010°32'8 7.7
2015-May-12 23:33N 37°02' W 010°24'7 7.4
2015-May-12 22:33N 37°05' W 010°15'8 7.6
2015-May-12 21:33N 37°09' W 010°07'8 7.6
2015-May-12 20:33N 37°12' W 009°58'8 7.9
2015-May-12 19:33N 37°16' W 009°49'8 7.7
2015-May-12 18:33N 37°19' W 009°41'7 7.5
2015-May-12 17:33N 37°23' W 009°32'7 6.9
2015-May-12 16:33N 37°26' W 009°25'7 7.0
2015-May-12 15:32N 37°30' W 009°17'8 7.1
2015-May-12 14:24N 37°34' W 009°08'6 7.1
2015-May-12 13:33N 37°37' W 009°02'6 5.9
2015-May-12 12:33N 37°41' W 008°56'1 1.1
2015-May-12 11:33N 37°42' W 008°56'1 1.2
2015-May-12 10:33N 37°43' W 008°56'1 1.2
2015-May-12 09:33N 37°44' W 008°56'0 0.2
2015-May-12 08:33N 37°44' W 008°57'1 1.1
2015-May-12 07:32N 37°43' W 008°57'1 1.2
2015-May-12 06:33N 37°42' W 008°57'1 1.2
2015-May-12 05:33N 37°41' W 008°57'1 1.1
2015-May-12 04:33N 37°41' W 008°56'0 0.4
2015-May-12 03:33N 37°41' W 008°56'3 2.9
2015-May-12 02:33N 37°44' W 008°57'3 2.5
2015-May-12 01:33N 37°41' W 008°57'4 3.5
2015-May-12 00:33N 37°38' W 008°58'2 1.6
2015-May-11 23:31N 37°39' W 008°59'7 7.1
2015-May-11 22:33N 37°46' W 008°57'7 7.1
2015-May-11 21:33N 37°52' W 008°60'8 7.8
2015-May-11 20:33N 37°59' W 009°04'8 7.5
2015-May-11 19:33N 38°06' W 009°09'7 7.4
2015-May-11 18:33N 38°13' W 009°13'8 7.7
2015-May-11 17:32N 38°20' W 009°17'7 7.5
2015-May-11 16:33N 38°27' W 009°21'8 7.5
2015-May-11 15:33N 38°33' W 009°25'8 7.4
2015-May-11 14:32N 38°40' W 009°29'9 6.8
2015-May-11 13:11N 38°49' W 009°31'33 6.7
2015-May-11 08:17N 39°21' W 009°22'  
2015-May-08 18:18N 39°21' W 009°22'0 0.0
2015-May-08 17:33N 39°21' W 009°22'0 0.0
2015-May-08 16:33N 39°21' W 009°22'0 0.0
2015-May-08 15:33N 39°21' W 009°22'0 0.0
2015-May-08 14:33N 39°21' W 009°22'0 0.0
2015-May-08 13:29N 39°21' W 009°22'0 0.0
2015-May-07 05:33N 39°21' W 009°22'0 0.0
2015-May-07 03:18N 39°21' W 009°22'0 0.0
2015-May-07 02:31N 39°21' W 009°22'  

Dump ship's entire track history